New Bern, NC (28562)

6:32 PM EDT on August 30, 2014 (GMT -0400)
Carolina Colours - Waterleaf | Change Station
CLOSE
Current Station
Personal Weather Station
Location: New Bern, NC
Elevation: 43 ft
Nearby Weather Stations

Elev 43 ft 35.03 °N, 77.01 °W | Updated 5 seconds ago

Partly Cloudy
Partly Cloudy
85.8 °F
Feels Like 94 °F
N
3.1
Wind Variable Wind from South
Gusts 7.6 mph

Today
High -- | Low -- °F
--% Chance of Precip.
Yesterday
High -- | Low -- °F
Precip. -- in
6:39 AM 7:37 PM
Waxing Crescent, 25% visible
Pressure 30.15 in
Visibility 10.0 miles
Clouds Few 3200 ft
Heat Index 94 °F
Dew Point 74 °F
Humidity 68%
Rainfall 0.00 in
Snow Depth Not available.
UV 1 out of 12
Pollen 8.00 out of 12
Air Quality Not available.
Flu Activity Not available.
METAR KEWN 302154Z AUTO 17006KT 10SM FEW032 31/22 A3015 RMK AO2 SLP210 T03060222 TSNO

More Conditions Fewer Conditions

Pressure 30.15 in
Visibility 10.0 miles
Clouds Few 3200 ft
Heat Index 94 °F
Dew Point 74 °F
Humidity 68%
Rainfall 0.00 in
Snow Depth Not available.
UV 1 out of 12
Pollen 8.00 out of 12
Air Quality Not available.
Flu Activity Not available.
METAR KEWN 302154Z AUTO 17006KT 10SM FEW032 31/22 A3015 RMK AO2 SLP210 T03060222 TSNO

More Conditions Fewer Conditions

10-Day Weather Forecast

Almanac

Astronomy

Aug. 30, 2014 Rise Set
Actual Time 6:39 AM EDT 7:37 PM EDT
Civil Twilight 6:13 AM EDT 8:03 PM EDT
Nautical Twilight 5:42 AM EDT 8:34 PM EDT
Astronomical Twilight 5:10 AM EDT 9:06 PM EDT
Moon 11:12 AM EDT 10:23 PM EDT
Length of Visible Light 13h 50m
Length of Day
12h 58m
Tomorrow will be 2m 6s shorter.
Waxing Crescent, 25% of the Moon is Illuminated
Today
Waxing Crescent
Sep 2
First Quarter
Sep 8
Full
Sep 15
Last Quarter
Sep 24
New

Today's Extremes

State Highs State Lows

Community

WunderPhotos

Upload Photos

1,748,657 photos uploaded!

WunderBlogs® & News

Nearby

Snow Depth

Station Depth Elevation
No new snow has been reported.

Earthquake Activity

City Distance Mag. Time & Date
No recent earthquake activity has been reported nearby.
Minimum magnitude displayed is 2.5.

Coastal Water Temperatures

Place Temperature
No Stations Reporting

Nearby Weather Stations